Flight Track Log - Related Links

Times and Time Zones

All times are in EDT time to prevent confusion due to time zone crossing. See the SKW5631 flight status page for this flight to view local times or setup timezone preferences in your user account.

Time Position Orientation Groundspeed Altitude Reporting Facility
EDT Latitude Longitude Course Direction KTS MPH feet Rate Location/Type
Sun 04:05:20 PM 32.9000 -97.0500 294° West 158 182 1,300  Level Dallas / Fort Worth TRACON
Sun 04:06:26 PM 32.9667 -97.0500 360° North 213 245 4,100 2,545 Climbing Dallas / Fort Worth TRACON
Sun 04:07:32 PM 33.0333 -97.0667 348° North 251 289 6,900 2,278 Climbing Dallas / Fort Worth TRACON
Sun 04:08:00 PM 32.8474 -97.4218 293° West  Level FlightAware Approximate
Sun 04:09:00 PM 32.8916 -97.5436 293° West  Level FlightAware Approximate
Sun 04:09:04 PM 33.0378 -97.2003 272° West 270 311 10,100  Level Fort Worth Center
Sun 04:10:00 PM 32.9403 -97.6628 294° West  Level FlightAware Approximate
Sun 04:10:04 PM 33.0294 -97.2994 264° West 277 319 10,000  Level Fort Worth Center
Sun 04:11:04 PM 33.0192 -97.3764 261° West 282 325 10,900 1,750 Climbing Fort Worth Center
Sun 04:12:04 PM 33.0044 -97.5025 262° West 315 362 13,500 2,350 Climbing Fort Worth Center
Sun 04:13:04 PM 32.9939 -97.6117 263° West 328 377 15,600 1,800 Climbing Fort Worth Center
Sun 04:14:04 PM 32.9811 -97.7106 261° West 342 394 17,100 1,750 Climbing Fort Worth Center
Sun 04:15:04 PM 32.9956 -97.8369 278° West 347 399 19,100 1,900 Climbing Fort Worth Center
Sun 04:16:04 PM 33.0117 -97.9386 281° West 347 399 20,900 1,800 Climbing Fort Worth Center
Sun 04:17:04 PM 33.0319 -98.0628 281° West 357 411 22,700 1,050 Climbing Fort Worth Center
Sun 04:18:04 PM 33.0481 -98.1694 280° West 357 411 23,000 850 Climbing Fort Worth Center
Sun 04:19:04 PM 33.0703 -98.3083 281° West 377 434 24,400 1,600 Climbing Fort Worth Center
Sun 04:20:04 PM 33.0861 -98.4175 280° West 384 442 26,200 1,400 Climbing Fort Worth Center
Sun 04:21:04 PM 33.1036 -98.5517 279° West 379 436 27,200 1,000 Climbing Fort Worth Center
Sun 04:22:04 PM 33.1214 -98.6611 281° West 379 436 28,200 900 Climbing Fort Worth Center
Sun 04:23:04 PM 33.1411 -98.7878 281° West 384 442 29,000 750 Climbing Fort Worth Center
Sun 04:24:04 PM 33.1625 -98.9197 281° West 396 456 29,700 700 Climbing Fort Worth Center
Sun 04:25:04 PM 33.1817 -99.0517 280° West 396 456 30,400 700 Climbing Fort Worth Center
Sun 04:26:04 PM 33.2006 -99.1886 279° West 406 467 31,100 700 Climbing Fort Worth Center
Sun 04:27:04 PM 33.2217 -99.3231 281° West 411 473 31,800 850 Climbing Fort Worth Center
Sun 04:28:04 PM 33.2383 -99.4575 278° West 411 473 32,800 1,000 Climbing Fort Worth Center
Sun 04:29:04 PM 33.2758 -99.5825 290° West 405 466 33,800 1,000 Climbing Fort Worth Center
Sun 04:30:04 PM 33.3408 -99.6861 307° West 388 447 34,800 1,000 Climbing Fort Worth Center
Sun 04:31:04 PM 33.4100 -99.7875 309° West 393 452 35,800 600 Climbing Fort Worth Center
Sun 04:32:04 PM 33.4769 -99.8864 309° West 388 447 36,000 67 Climbing Fort Worth Center
Sun 04:34:04 PM 33.6125 -100.0872 309° West 388 447 36,000  Level Fort Worth Center
Sun 04:35:04 PM 33.6792 -100.1892 308° West 388 447 36,000  Level Fort Worth Center
Sun 04:36:04 PM 33.7478 -100.2911 309° West 388 447 36,000  Level Fort Worth Center
Sun 04:37:04 PM 33.8058 -100.3956 304° West 388 447 36,000  Level Fort Worth Center
Sun 04:38:04 PM 33.8575 -100.5100 299° West 388 447 36,000  Level Fort Worth Center
Sun 04:39:04 PM 33.9089 -100.6219 299° West 383 441 36,000  Level Fort Worth Center
Sun 04:40:04 PM 33.9581 -100.7339 298° West 383 441 36,000  Level Fort Worth Center
Sun 04:42:04 PM 34.0664 -100.9711 299° West 383 441 36,000  Level Fort Worth Center
Sun 04:43:04 PM 34.1131 -101.0883 296° West 383 441 36,000  Level Fort Worth Center
Sun 04:44:04 PM 34.1619 -101.1933 299° West 389 448 36,000  Level Fort Worth Center
Sun 04:45:04 PM 34.2167 -101.3214 297° West 389 448 36,000  Level Fort Worth Center
Sun 04:47:27 PM 34.3389 -101.5986 298° West 393 452 36,000  Level Albuquerque Center
Sun 04:48:29 PM 34.3900 -101.7147 298° West 392 451 36,000  Level Albuquerque Center
Sun 04:49:31 PM 34.4406 -101.8333 297° West 394 453 36,000  Level Albuquerque Center
Sun 04:50:33 PM 34.4922 -101.9533 298° West 398 458 36,000  Level Albuquerque Center
Sun 04:51:35 PM 34.5422 -102.0706 297° West 393 452 36,000  Level Albuquerque Center
Sun 04:52:37 PM 34.5931 -102.1883 298° West 392 451 36,000  Level Albuquerque Center
Sun 04:53:39 PM 34.6433 -102.3075 297° West 395 455 36,000  Level Albuquerque Center
Sun 04:54:41 PM 34.7039 -102.4503 297° West 394 453 36,000  Level Albuquerque Center
Sun 04:55:43 PM 34.7547 -102.5692 298° West 396 456 36,000  Level Albuquerque Center
Sun 04:56:45 PM 34.7983 -102.6772 296° West 396 456 36,000  Level Albuquerque Center
Sun 04:57:47 PM 34.8583 -102.8169 298° West 395 455 36,000  Level Albuquerque Center
Sun 04:58:49 PM 34.9092 -102.9367 297° West 395 455 36,000  Level Albuquerque Center
Sun 04:59:51 PM 34.9583 -103.0581 296° West 396 456 36,000  Level Albuquerque Center
Sun 05:01:00 PM 35.0150 -103.1931 297° West  Level FlightAware Approximate
Sun 05:02:56 PM 35.1097 -103.4214 291° West 398 458 36,000  Level Albuquerque Center
Sun 05:03:58 PM 35.1606 -103.5431 297° West 399 459 36,000  Level Albuquerque Center
Sun 05:05:00 PM 35.2122 -103.6878 294° West 398 458 36,000  Level Albuquerque Center
Sun 05:06:02 PM 35.2514 -103.8147 291° West 397 457 36,000  Level Albuquerque Center
Sun 05:07:04 PM 35.2872 -103.9275 291° West 397 457 36,000  Level Albuquerque Center
Sun 05:08:00 PM 35.3191 -104.0399 291° West  Level FlightAware Approximate
Sun 05:08:06 PM 35.3350 -104.0792 291° West 398 458 36,000  Level Albuquerque Center
Sun 05:10:10 PM 35.4158 -104.3428 291° West 401 461 36,000  Level Albuquerque Center
Sun 05:11:12 PM 35.4550 -104.4706 291° West 400 460 36,000  Level Albuquerque Center
Sun 05:12:14 PM 35.4950 -104.6003 291° West 402 463 36,000  Level Albuquerque Center
Sun 05:13:16 PM 35.5344 -104.7303 290° West 404 465 36,000  Level Albuquerque Center
Sun 05:14:18 PM 35.5744 -104.8597 291° West 403 464 36,000  Level Albuquerque Center
Sun 05:15:20 PM 35.6133 -104.9911 290° West 405 466 36,000  Level Albuquerque Center
Sun 05:16:22 PM 35.6525 -105.1200 291° West 401 461 36,000  Level Albuquerque Center
Sun 05:17:24 PM 35.7081 -105.2683 295° West 404 465 36,000  Level Albuquerque Center
Sun 05:18:26 PM 35.7575 -105.3953 296° West 408 470 36,000  Level Albuquerque Center
Sun 05:19:27 PM 35.8056 -105.5203 295° West 403 464 36,000  Level Albuquerque Center
Sun 05:20:29 PM 35.8550 -105.6464 296° West 407 468 36,000  Level Albuquerque Center
Sun 05:21:31 PM 35.9008 -105.7714 294° West 405 466 36,000  Level Albuquerque Center
Sun 05:22:33 PM 35.9497 -105.9011 295° West 403 464 36,000  Level Albuquerque Center
Sun 05:24:37 PM 36.0431 -106.1472 295° West 404 465 36,000  Level Albuquerque Center
Sun 05:25:39 PM 36.1000 -106.3006 295° West 409 471 36,000 290 Level Albuquerque Center
Sun 05:27:43 PM 36.1942 -106.5553 295° West 406 467 36,900 516 Climbing Albuquerque Center
Sun 05:28:45 PM 36.2458 -106.6958 295° West 403 464 37,600 532 Climbing Albuquerque Center
Sun 05:29:47 PM 36.2906 -106.8158 295° West 401 461 38,000 194 Climbing Albuquerque Center
Sun 05:30:49 PM 36.3397 -106.9547 294° West 397 457 38,000  Level Albuquerque Center
Sun 05:31:51 PM 36.3828 -107.0761 294° West 399 459 38,000  Level Albuquerque Center
Sun 05:32:17 PM 36.4044 -107.1283 297° West 402 463 38,000  Level Denver Center
Sun 05:33:19 PM 36.4497 -107.2567 294° West 403 464 38,000  Level Denver Center
Sun 05:34:21 PM 36.4997 -107.3989 294° West 403 464 38,000  Level Denver Center
Sun 05:35:23 PM 36.5450 -107.5200 295° West 401 461 38,000  Level Denver Center
Sun 05:36:24 PM 36.5953 -107.6639 294° West 408 470 38,000  Level Denver Center
Sun 05:37:26 PM 36.6386 -107.7856 294° West 404 465 38,000  Level Denver Center
Sun 05:38:28 PM 36.6892 -107.9297 294° West 406 467 38,000  Level Denver Center
Sun 05:39:30 PM 36.7325 -108.0514 294° West 405 466 38,000  Level Denver Center
Sun 05:40:32 PM 36.7750 -108.1731 294° West 403 464 38,000  Level Denver Center
Sun 05:41:34 PM 36.8261 -108.3150 294° West 402 463 38,000  Level Denver Center
Sun 05:42:36 PM 36.8689 -108.4381 294° West 403 464 38,000  Level Denver Center
Sun 05:43:37 PM 36.9183 -108.5789 294° West 399 459 38,000  Level Denver Center
Sun 05:44:39 PM 36.9614 -108.7000 294° West 400 460 38,000  Level Denver Center
Sun 05:45:41 PM 37.0111 -108.8453 293° West 407 468 38,000  Level Denver Center
Sun 05:47:45 PM 37.1039 -109.1133 294° West 405 466 38,000  Level Denver Center
Sun 05:48:47 PM 37.1469 -109.2358 294° West 404 465 38,000  Level Denver Center
Sun 05:49:49 PM 37.1958 -109.3808 293° West 404 465 38,000  Level Denver Center
Sun 05:50:50 PM 37.2383 -109.5053 293° West 407 468 38,000  Level Denver Center
Sun 05:51:52 PM 37.2883 -109.6525 293° West 409 471 38,000  Level Denver Center
Sun 05:52:54 PM 37.3311 -109.7789 293° West 410 472 38,000  Level Denver Center
Sun 05:53:56 PM 37.3803 -109.9281 293° West 415 478 38,000  Level Denver Center
Sun 05:54:58 PM 37.4239 -110.0547 293° West 414 476 38,000  Level Denver Center
Sun 05:57:01 PM 37.5144 -110.3333 292° West 415 478 38,000  Level Denver Center
Sun 05:58:03 PM 37.5586 -110.4625 293° West 419 482 38,000  Level Denver Center
Sun 05:59:05 PM 37.6067 -110.6089 293° West 418 481 38,000  Level Denver Center
Sun 06:00:06 PM 37.6506 -110.7436 292° West 419 482 38,000  Level Denver Center
Sun 06:01:08 PM 37.6856 -110.8522 292° West 419 482 38,000  Level Denver Center
Sun 06:02:10 PM 37.7386 -111.0147 292° West 419 482 38,000  Level Denver Center
Sun 06:03:12 PM 37.7822 -111.1503 292° West 418 481 38,000  Level Denver Center
Sun 06:03:30 PM 37.8000 -111.2056 292° West 420 483 38,000  Level Salt Lake Center
Sun 06:04:32 PM 37.8439 -111.3419 292° West 420 483 38,000  Level Salt Lake Center
Sun 06:05:34 PM 37.8883 -111.4789 292° West 423 487 38,000  Level Salt Lake Center
Sun 06:06:35 PM 37.9317 -111.6158 292° West 422 486 38,000  Level Salt Lake Center
Sun 06:07:37 PM 37.9836 -111.7803 292° West 421 484 38,000  Level Salt Lake Center
Sun 06:08:39 PM 38.0267 -111.9175 292° West 420 483 38,000  Level Salt Lake Center
Sun 06:09:40 PM 38.0692 -112.0536 292° West 419 482 38,000  Level Salt Lake Center
Sun 06:10:42 PM 38.1114 -112.1900 292° West 418 481 38,000  Level Salt Lake Center
Sun 06:11:44 PM 38.1536 -112.3264 292° West 418 481 38,000  Level Salt Lake Center
Sun 06:12:45 PM 38.1956 -112.4614 292° West 416 479 38,000  Level Salt Lake Center
Sun 06:13:47 PM 38.2453 -112.6258 291° West 418 481 38,000  Level Salt Lake Center
Sun 06:14:49 PM 38.2867 -112.7614 291° West 416 479 38,000  Level Salt Lake Center
Sun 06:15:50 PM 38.3283 -112.8978 291° West 416 479 38,000  Level Salt Lake Center
Sun 06:16:52 PM 38.3706 -113.0328 292° West 416 479 38,000  Level Salt Lake Center
Sun 06:17:53 PM 38.4142 -113.1678 292° West 415 478 38,000  Level Salt Lake Center
Sun 06:18:55 PM 38.4581 -113.3056 292° West 419 482 38,000  Level Salt Lake Center
Sun 06:19:57 PM 38.4744 -113.4486 278° West 422 486 38,000  Level Salt Lake Center
Sun 06:20:58 PM 38.4586 -113.6189 263° West 407 468 38,000  Level Salt Lake Center
Sun 06:22:00 PM 38.4467 -113.7611 264° West 408 470 38,000  Level Salt Lake Center
Sun 06:23:01 PM 38.4328 -113.9044 263° West 409 471 38,000  Level Salt Lake Center
Sun 06:24:03 PM 38.4189 -114.0503 263° West 415 478 38,000  Level Salt Lake Center
Sun 06:25:04 PM 38.4050 -114.1947 263° West 414 476 38,000  Level Salt Lake Center
Sun 06:26:06 PM 38.3911 -114.3400 263° West 415 478 38,000  Level Salt Lake Center
Sun 06:27:07 PM 38.3761 -114.4850 263° West 414 476 38,000  Level Salt Lake Center
Sun 06:28:08 PM 38.3581 -114.6600 263° West 417 480 38,000  Level Salt Lake Center
Sun 06:29:10 PM 38.3442 -114.8047 263° West 414 476 38,000  Level Salt Lake Center
Sun 06:30:11 PM 38.3289 -114.9511 262° West 418 481 38,000  Level Salt Lake Center
Sun 06:31:13 PM 38.3142 -115.0953 263° West 414 476 38,000  Level Salt Lake Center
Sun 06:32:14 PM 38.2992 -115.2411 263° West 418 481 38,000  Level Salt Lake Center
Sun 06:33:16 PM 38.2814 -115.3989 262° West 415 478 38,000  Level Salt Lake Center
Sun 06:34:17 PM 38.2658 -115.5458 262° West 418 481 38,000  Level Salt Lake Center
Sun 06:35:18 PM 38.2500 -115.6917 262° West 416 479 38,000  Level Salt Lake Center
Sun 06:36:20 PM 38.2333 -115.8375 262° West 418 481 38,000  Level Salt Lake Center
Sun 06:37:21 PM 38.2178 -115.9844 262° West 419 482 38,000  Level Salt Lake Center
Sun 06:38:23 PM 38.2017 -116.1297 262° West 417 480 38,000  Level Salt Lake Center
Sun 06:39:24 PM 38.1842 -116.2769 261° West 421 484 38,000  Level Salt Lake Center
Sun 06:40:02 PM 38.1708 -116.3933 262° West 419 482 38,000  Level Oakland Center
Sun 06:41:03 PM 38.1539 -116.5386 262° West 417 480 38,000  Level Oakland Center
Sun 06:42:05 PM 38.1364 -116.6864 261° West 421 484 38,000  Level Oakland Center
Sun 06:43:06 PM 38.1189 -116.8339 261° West 421 484 38,000  Level Oakland Center
Sun 06:44:07 PM 38.1031 -116.9817 262° West 422 486 38,000  Level Oakland Center
Sun 06:45:09 PM 38.0875 -117.1300 262° West 418 481 38,000  Level Oakland Center
Sun 06:47:11 PM 38.0556 -117.4367 263° West 424 488 38,000  Level Oakland Center
Sun 06:48:13 PM 38.0406 -117.5844 263° West 422 486 38,000  Level Oakland Center
Sun 06:49:14 PM 38.0239 -117.7328 262° West 424 488 38,000  Level Oakland Center
Sun 06:50:15 PM 38.0078 -117.8817 262° West 426 490 38,000  Level Oakland Center
Sun 06:51:17 PM 37.9917 -118.0292 262° West 422 486 38,000  Level Oakland Center
Sun 06:52:18 PM 37.9753 -118.1778 262° West 426 490 38,000  Level Oakland Center
Sun 06:53:19 PM 37.9581 -118.3250 262° West 425 489 38,000 -244 Level Oakland Center
Sun 06:54:21 PM 37.9414 -118.4717 262° West 421 484 37,500 -829 Descending Oakland Center
Sun 06:55:22 PM 37.9214 -118.6417 262° West 408 470 36,300 -738 Descending Oakland Center
Sun 06:56:23 PM 37.9053 -118.7800 262° West 399 459 36,000 -146 Descending Oakland Center
Sun 06:57:25 PM 37.8883 -118.9206 261° West 403 464 36,000  Level Oakland Center
Sun 06:58:26 PM 37.8711 -119.0658 262° West 416 479 36,000 -148 Level Oakland Center
Sun 06:59:27 PM 37.8547 -119.1961 261° West 421 484 35,700 -829 Descending Oakland Center
Sun 07:00:29 PM 37.8339 -119.3711 261° West 420 483 34,300 -829 Descending Oakland Center
Sun 07:01:30 PM 37.8153 -119.5139 261° West 414 476 34,000 -148 Descending Oakland Center
Sun 07:02:31 PM 37.7978 -119.6564 261° West 409 471 34,000  Level Oakland Center
Sun 07:03:32 PM 37.7811 -119.7994 262° West 410 472 34,000 -878 Level Oakland Center
Sun 07:04:34 PM 37.7631 -119.9458 261° West 416 479 32,200 -1,902 Descending Oakland Center
Sun 07:05:35 PM 37.7428 -120.0936 260° West 420 483 30,100 -2,066 Descending Oakland Center
Sun 07:06:36 PM 37.7233 -120.2394 260° West 421 484 28,000 -2,066 Descending Oakland Center
Sun 07:07:37 PM 37.7047 -120.3800 261° West 411 473 25,900 -2,049 Descending Oakland Center
Sun 07:08:39 PM 37.6861 -120.5203 261° West 405 466 23,800 -2,049 Descending Oakland Center
Sun 07:09:40 PM 37.6672 -120.6597 260° West 404 465 21,700 -1,967 Descending Oakland Center
Sun 07:10:41 PM 37.6494 -120.7911 260° West 391 450 19,800 -1,951 Descending Oakland Center
Sun 07:11:43 PM 37.6325 -120.9161 260° West 367 422 17,700 -2,146 Descending Oakland Center
Sun 07:12:44 PM 37.6153 -121.0606 261° West 349 402 15,400 -1,820 Descending Oakland Center
Sun 07:13:45 PM 37.6025 -121.1758 262° West 346 398 14,000 -1,339 Descending Oakland Center
Sun 07:14:45 PM 37.6000 -121.3000 269° West 348 400 12,700 -1,339 Descending Northern Cal TRACON
Sun 07:15:46 PM 37.6500 -121.4000 302° West 333 383 11,300 -1,339 Descending Northern Cal TRACON
Sun 07:16:46 PM 37.7000 -121.4833 307° West 325 374 10,000 -950 Descending Northern Cal TRACON
Sun 07:17:46 PM 37.7333 -121.5833 293° West 307 353 9,400 -500 Descending Northern Cal TRACON
Sun 07:18:46 PM 37.7667 -121.6833 293° West 271 312 9,000 -200 Descending Northern Cal TRACON
Sun 07:19:46 PM 37.8000 -121.7667 297° West 279 321 9,000 -141 Level Northern Cal TRACON
Sun 07:20:54 PM 37.8225 -121.8750 285° West 279 321 8,700 -744 Descending Oakland Center
Sun 07:21:55 PM 37.8483 -121.9719 289° West 289 333 7,400 -836 Descending Oakland Center
Sun 07:22:56 PM 37.8728 -122.0664 288° West 287 330 7,000 -443 Descending Oakland Center
Sun 07:23:57 PM 37.8525 -122.1439 252° West 262 302 6,500 -488 Descending Oakland Center
Sun 07:24:59 PM 37.8044 -122.1917 218° Southwest 224 258 6,000 -976 Descending Oakland Center
Sun 07:26:00 PM 37.7661 -122.2306 219° Southwest 185 213 4,500 -1,574 Descending Oakland Center
Sun 07:27:01 PM 37.7267 -122.2675 217° Southwest 178 205 2,800 -1,672 Descending Oakland Center

Login

Don't have an account? Register now (free) for customized features, flight alerts, and more!